sensor_id;sensor_type;location;lat;lon;timestamp;temperature;humidity
70151;DHT22;57517;43.562;19.540;2023-07-08T00:02:09;487.10;2380.80
70151;DHT22;57517;43.562;19.540;2023-07-08T00:04:36;487.10;2380.80
70151;DHT22;57517;43.562;19.540;2023-07-08T00:07:02;486.90;2380.80
70151;DHT22;57517;43.562;19.540;2023-07-08T00:09:27;486.80;2380.80
70151;DHT22;57517;43.562;19.540;2023-07-08T00:11:53;486.60;2380.80
70151;DHT22;57517;43.562;19.540;2023-07-08T00:14:19;486.50;2380.80
70151;DHT22;57517;43.562;19.540;2023-07-08T00:16:44;486.60;2380.80
70151;DHT22;57517;43.562;19.540;2023-07-08T00:19:10;486.60;2380.80
70151;DHT22;57517;43.562;19.540;2023-07-08T00:21:36;486.80;2380.80
70151;DHT22;57517;43.562;19.540;2023-07-08T00:24:02;486.90;2380.80
70151;DHT22;57517;43.562;19.540;2023-07-08T00:26:30;487.10;2380.80
70151;DHT22;57517;43.562;19.540;2023-07-08T00:28:56;487.20;2380.80
70151;DHT22;57517;43.562;19.540;2023-07-08T00:31:23;487.10;2380.80
70151;DHT22;57517;43.562;19.540;2023-07-08T00:33:52;487.10;2380.80
70151;DHT22;57517;43.562;19.540;2023-07-08T00:36:21;487.00;2380.80
70151;DHT22;57517;43.562;19.540;2023-07-08T00:38:47;486.60;2380.80
70151;DHT22;57517;43.562;19.540;2023-07-08T00:41:38;486.40;2380.80
70151;DHT22;57517;43.562;19.540;2023-07-08T00:44:05;461.70;2380.80
70151;DHT22;57517;43.562;19.540;2023-07-08T00:46:33;486.40;2380.80
70151;DHT22;57517;43.562;19.540;2023-07-08T00:51:33;486.60;2380.80
70151;DHT22;57517;43.562;19.540;2023-07-08T00:53:59;486.70;2380.80
70151;DHT22;57517;43.562;19.540;2023-07-08T00:56:26;486.90;2380.80
70151;DHT22;57517;43.562;19.540;2023-07-08T00:59:10;486.90;2380.80
70151;DHT22;57517;43.562;19.540;2023-07-08T01:01:40;487.10;2380.80
70151;DHT22;57517;43.562;19.540;2023-07-08T01:06:44;487.10;2380.80
70151;DHT22;57517;43.562;19.540;2023-07-08T01:09:13;486.90;2380.80
70151;DHT22;57517;43.562;19.540;2023-07-08T01:11:41;486.60;2380.80
70151;DHT22;57517;43.562;19.540;2023-07-08T01:14:09;486.40;2380.80
70151;DHT22;57517;43.562;19.540;2023-07-08T01:16:37;461.60;2380.80
70151;DHT22;57517;43.562;19.540;2023-07-08T01:19:04;461.50;2380.80
70151;DHT22;57517;43.562;19.540;2023-07-08T01:21:35;461.70;2380.80
70151;DHT22;57517;43.562;19.540;2023-07-08T01:24:06;486.50;2380.80
70151;DHT22;57517;43.562;19.540;2023-07-08T01:26:35;486.50;2380.80
70151;DHT22;57517;43.562;19.540;2023-07-08T01:29:03;486.60;2380.80
70151;DHT22;57517;43.562;19.540;2023-07-08T01:31:29;486.60;2380.80
70151;DHT22;57517;43.562;19.540;2023-07-08T01:33:55;486.60;2380.80
70151;DHT22;57517;43.562;19.540;2023-07-08T01:36:21;461.70;2380.80
70151;DHT22;57517;43.562;19.540;2023-07-08T01:38:47;486.40;2380.80
70151;DHT22;57517;43.562;19.540;2023-07-08T01:41:16;486.40;2380.80
70151;DHT22;57517;43.562;19.540;2023-07-08T01:43:42;486.40;2380.80
70151;DHT22;57517;43.562;19.540;2023-07-08T01:46:15;461.70;2380.80
70151;DHT22;57517;43.562;19.540;2023-07-08T01:48:49;486.50;2380.80
70151;DHT22;57517;43.562;19.540;2023-07-08T01:51:15;486.60;2380.80
70151;DHT22;57517;43.562;19.540;2023-07-08T01:53:42;486.70;2380.80
70151;DHT22;57517;43.562;19.540;2023-07-08T01:56:10;486.90;2380.80
70151;DHT22;57517;43.562;19.540;2023-07-08T01:58:36;486.90;2380.80
70151;DHT22;57517;43.562;19.540;2023-07-08T02:01:03;486.90;2380.80
70151;DHT22;57517;43.562;19.540;2023-07-08T02:03:29;486.90;2380.80
70151;DHT22;57517;43.562;19.540;2023-07-08T02:05:55;486.90;2380.80
70151;DHT22;57517;43.562;19.540;2023-07-08T02:08:21;486.90;2380.80
70151;DHT22;57517;43.562;19.540;2023-07-08T02:10:50;486.90;2380.80
70151;DHT22;57517;43.562;19.540;2023-07-08T02:13:17;486.90;2380.80
70151;DHT22;57517;43.562;19.540;2023-07-08T02:15:43;486.90;2380.80
70151;DHT22;57517;43.562;19.540;2023-07-08T02:18:09;487.10;2380.80
70151;DHT22;57517;43.562;19.540;2023-07-08T02:20:34;487.10;2380.80
70151;DHT22;57517;43.562;19.540;2023-07-08T02:23:00;487.10;2380.80
70151;DHT22;57517;43.562;19.540;2023-07-08T02:25:26;487.10;2380.80
70151;DHT22;57517;43.562;19.540;2023-07-08T02:27:52;487.20;2380.80
70151;DHT22;57517;43.562;19.540;2023-07-08T02:30:25;487.10;2380.80
70151;DHT22;57517;43.562;19.540;2023-07-08T02:32:52;487.10;2380.80
70151;DHT22;57517;43.562;19.540;2023-07-08T02:35:25;487.10;2380.80
70151;DHT22;57517;43.562;19.540;2023-07-08T02:37:52;487.10;2380.80
70151;DHT22;57517;43.562;19.540;2023-07-08T02:40:18;487.10;2380.80
70151;DHT22;57517;43.562;19.540;2023-07-08T02:42:44;487.10;2380.80
70151;DHT22;57517;43.562;19.540;2023-07-08T02:45:11;487.10;2380.80
70151;DHT22;57517;43.562;19.540;2023-07-08T02:47:37;487.00;2380.80
70151;DHT22;57517;43.562;19.540;2023-07-08T02:50:04;487.10;2380.80
70151;DHT22;57517;43.562;19.540;2023-07-08T02:52:30;486.90;2380.80
70151;DHT22;57517;43.562;19.540;2023-07-08T02:54:55;486.90;2380.80
70151;DHT22;57517;43.562;19.540;2023-07-08T02:57:21;486.90;2380.80
70151;DHT22;57517;43.562;19.540;2023-07-08T02:59:47;486.90;2380.80
70151;DHT22;57517;43.562;19.540;2023-07-08T03:02:14;486.80;2380.80
70151;DHT22;57517;43.562;19.540;2023-07-08T03:04:39;486.80;2380.80
70151;DHT22;57517;43.562;19.540;2023-07-08T03:07:09;486.80;2380.80
70151;DHT22;57517;43.562;19.540;2023-07-08T03:09:40;486.70;2380.80
70151;DHT22;57517;43.562;19.540;2023-07-08T03:12:07;486.80;2380.80
70151;DHT22;57517;43.562;19.540;2023-07-08T03:14:33;486.70;2380.80
70151;DHT22;57517;43.562;19.540;2023-07-08T03:16:59;486.70;2380.80
70151;DHT22;57517;43.562;19.540;2023-07-08T03:19:26;486.70;2380.80
70151;DHT22;57517;43.562;19.540;2023-07-08T03:21:52;486.50;2380.80
70151;DHT22;57517;43.562;19.540;2023-07-08T03:24:18;486.60;2380.80
70151;DHT22;57517;43.562;19.540;2023-07-08T03:26:44;486.50;2380.80
70151;DHT22;57517;43.562;19.540;2023-07-08T03:29:16;486.40;2380.80
70151;DHT22;57517;43.562;19.540;2023-07-08T03:31:42;486.40;2380.80
70151;DHT22;57517;43.562;19.540;2023-07-08T03:34:16;486.40;2380.80
70151;DHT22;57517;43.562;19.540;2023-07-08T03:36:50;461.70;2380.80
70151;DHT22;57517;43.562;19.540;2023-07-08T03:39:18;461.60;2380.80
70151;DHT22;57517;43.562;19.540;2023-07-08T03:41:45;461.70;2380.80
70151;DHT22;57517;43.562;19.540;2023-07-08T03:44:12;461.70;2380.80
70151;DHT22;57517;43.562;19.540;2023-07-08T03:46:38;486.40;2380.80
70151;DHT22;57517;43.562;19.540;2023-07-08T03:49:05;486.40;2380.80
70151;DHT22;57517;43.562;19.540;2023-07-08T03:51:36;486.60;2380.80
70151;DHT22;57517;43.562;19.540;2023-07-08T03:54:04;486.50;2380.80
70151;DHT22;57517;43.562;19.540;2023-07-08T03:56:31;486.60;2380.80
70151;DHT22;57517;43.562;19.540;2023-07-08T03:58:57;486.60;2380.80
70151;DHT22;57517;43.562;19.540;2023-07-08T04:01:24;486.50;2380.80
70151;DHT22;57517;43.562;19.540;2023-07-08T04:03:55;486.50;2380.80
70151;DHT22;57517;43.562;19.540;2023-07-08T04:06:22;486.40;2380.80
70151;DHT22;57517;43.562;19.540;2023-07-08T04:08:49;486.40;2380.80
70151;DHT22;57517;43.562;19.540;2023-07-08T04:11:20;486.50;2380.80
70151;DHT22;57517;43.562;19.540;2023-07-08T04:13:47;486.60;2380.80
70151;DHT22;57517;43.562;19.540;2023-07-08T04:16:23;486.70;2380.80
70151;DHT22;57517;43.562;19.540;2023-07-08T04:18:50;486.80;2380.80
70151;DHT22;57517;43.562;19.540;2023-07-08T04:21:19;486.80;2380.80
70151;DHT22;57517;43.562;19.540;2023-07-08T04:23:45;486.60;2380.80
70151;DHT22;57517;43.562;19.540;2023-07-08T04:26:11;486.70;2380.80
70151;DHT22;57517;43.562;19.540;2023-07-08T04:28:37;486.60;2380.80
70151;DHT22;57517;43.562;19.540;2023-07-08T04:31:03;486.70;2380.80
70151;DHT22;57517;43.562;19.540;2023-07-08T04:33:29;486.80;2380.80
70151;DHT22;57517;43.562;19.540;2023-07-08T04:35:55;486.70;2380.80
70151;DHT22;57517;43.562;19.540;2023-07-08T04:38:25;486.80;2380.80
70151;DHT22;57517;43.562;19.540;2023-07-08T04:40:52;486.80;2380.80
70151;DHT22;57517;43.562;19.540;2023-07-08T04:43:19;486.80;2380.80
70151;DHT22;57517;43.562;19.540;2023-07-08T04:45:49;486.80;2380.80
70151;DHT22;57517;43.562;19.540;2023-07-08T04:48:17;486.90;2380.80
70151;DHT22;57517;43.562;19.540;2023-07-08T04:50:46;487.10;2380.80
70151;DHT22;57517;43.562;19.540;2023-07-08T04:53:13;487.20;2380.80
70151;DHT22;57517;43.562;19.540;2023-07-08T04:55:49;487.20;2380.80
70151;DHT22;57517;43.562;19.540;2023-07-08T04:58:16;487.10;2380.80
70151;DHT22;57517;43.562;19.540;2023-07-08T05:00:42;512.10;2380.80
70151;DHT22;57517;43.562;19.540;2023-07-08T05:03:08;512.10;2380.80
70151;DHT22;57517;43.562;19.540;2023-07-08T05:05:33;512.50;2380.80
70151;DHT22;57517;43.562;19.540;2023-07-08T05:08:00;512.50;2329.60
70151;DHT22;57517;43.562;19.540;2023-07-08T05:10:26;512.50;2329.60
70151;DHT22;57517;43.562;19.540;2023-07-08T05:12:52;512.60;2304.00
70151;DHT22;57517;43.562;19.540;2023-07-08T05:15:17;512.50;2329.60
70151;DHT22;57517;43.562;19.540;2023-07-08T05:17:44;512.60;2304.00
70151;DHT22;57517;43.562;19.540;2023-07-08T05:20:12;512.60;2252.80
70151;DHT22;57517;43.562;19.540;2023-07-08T05:22:39;512.50;2329.60
70151;DHT22;57517;43.562;19.540;2023-07-08T05:25:05;512.70;2278.40
70151;DHT22;57517;43.562;19.540;2023-07-08T05:27:31;537.90;2201.60
70151;DHT22;57517;43.562;19.540;2023-07-08T05:30:05;564.00;1945.60
70151;DHT22;57517;43.562;19.540;2023-07-08T05:32:31;589.30;1766.40
70151;DHT22;57517;43.562;19.540;2023-07-08T05:34:57;614.70;1715.20
70151;DHT22;57517;43.562;19.540;2023-07-08T05:37:23;640.20;1561.60
70151;DHT22;57517;43.562;19.540;2023-07-08T05:39:54;640.60;1536.00
70151;DHT22;57517;43.562;19.540;2023-07-08T05:42:21;691.60;1433.60
70151;DHT22;57517;43.562;19.540;2023-07-08T05:44:47;691.80;1408.00
70151;DHT22;57517;43.562;19.540;2023-07-08T05:47:14;717.30;1331.20
70151;DHT22;57517;43.562;19.540;2023-07-08T05:49:40;691.60;1382.40
70151;DHT22;57517;43.562;19.540;2023-07-08T05:52:06;691.50;1408.00
70151;DHT22;57517;43.562;19.540;2023-07-08T05:54:40;692.10;1356.80
70151;DHT22;57517;43.562;19.540;2023-07-08T05:57:08;691.20;1433.60
70151;DHT22;57517;43.562;19.540;2023-07-08T05:59:35;717.30;1356.80
70151;DHT22;57517;43.562;19.540;2023-07-08T06:02:05;743.00;1305.60
70151;DHT22;57517;43.562;19.540;2023-07-08T06:04:31;768.20;1228.80
70151;DHT22;57517;43.562;19.540;2023-07-08T06:06:57;742.60;1280.00
70151;DHT22;57517;43.562;19.540;2023-07-08T06:09:23;717.70;1280.00
70151;DHT22;57517;43.562;19.540;2023-07-08T06:11:49;743.20;1254.40
70151;DHT22;57517;43.562;19.540;2023-07-08T06:14:15;717.50;1305.60
70151;DHT22;57517;43.562;19.540;2023-07-08T06:16:41;717.00;1331.20
70151;DHT22;57517;43.562;19.540;2023-07-08T06:19:07;717.20;1331.20
70151;DHT22;57517;43.562;19.540;2023-07-08T06:21:33;768.40;1228.80
70151;DHT22;57517;43.562;19.540;2023-07-08T06:23:58;794.10;1177.60
70151;DHT22;57517;43.562;19.540;2023-07-08T06:31:16;819.40;1126.40
70151;DHT22;57517;43.562;19.540;2023-07-08T06:33:42;819.60;1126.40
70151;DHT22;57517;43.562;19.540;2023-07-08T06:36:08;845.10;1126.40
70151;DHT22;57517;43.562;19.540;2023-07-08T06:38:34;870.80;998.40
70151;DHT22;57517;43.562;19.540;2023-07-08T06:41:00;871.20;972.80
70151;DHT22;57517;43.562;19.540;2023-07-08T06:43:26;921.60;947.20
70151;DHT22;57517;43.562;19.540;2023-07-08T06:45:52;921.70;921.60
70151;DHT22;57517;43.562;19.540;2023-07-08T06:48:17;947.60;870.40
70151;DHT22;57517;43.562;19.540;2023-07-08T06:50:46;922.50;896.00
70151;DHT22;57517;43.562;19.540;2023-07-08T06:53:13;947.70;870.40
70151;DHT22;57517;43.562;19.540;2023-07-08T06:55:39;947.40;844.80
70151;DHT22;57517;43.562;19.540;2023-07-08T06:58:05;921.80;896.00
70151;DHT22;57517;43.562;19.540;2023-07-08T07:00:31;947.30;870.40
70151;DHT22;57517;43.562;19.540;2023-07-08T07:02:56;947.70;844.80
70151;DHT22;57517;43.562;19.540;2023-07-08T07:05:22;948.10;819.20
70151;DHT22;57517;43.562;19.540;2023-07-08T07:07:50;947.30;870.40
70151;DHT22;57517;43.562;19.540;2023-07-08T07:10:16;922.30;896.00
70151;DHT22;57517;43.562;19.540;2023-07-08T07:12:41;922.50;870.40
70151;DHT22;57517;43.562;19.540;2023-07-08T07:15:07;947.90;819.20
70151;DHT22;57517;43.562;19.540;2023-07-08T07:17:33;947.90;819.20
70151;DHT22;57517;43.562;19.540;2023-07-08T07:20:01;947.80;844.80
70151;DHT22;57517;43.562;19.540;2023-07-08T07:22:27;948.10;819.20
70151;DHT22;57517;43.562;19.540;2023-07-08T07:24:54;973.00;844.80
70151;DHT22;57517;43.562;19.540;2023-07-08T07:27:20;973.20;819.20
70151;DHT22;57517;43.562;19.540;2023-07-08T07:29:48;972.90;844.80
70151;DHT22;57517;43.562;19.540;2023-07-08T07:32:15;973.30;819.20
70151;DHT22;57517;43.562;19.540;2023-07-08T07:34:42;973.20;819.20
70151;DHT22;57517;43.562;19.540;2023-07-08T07:37:13;973.40;819.20
70151;DHT22;57517;43.562;19.540;2023-07-08T07:39:39;973.00;819.20
70151;DHT22;57517;43.562;19.540;2023-07-08T07:42:05;972.90;819.20
70151;DHT22;57517;43.562;19.540;2023-07-08T07:44:31;972.80;819.20
70151;DHT22;57517;43.562;19.540;2023-07-08T07:46:57;973.10;793.60
70151;DHT22;57517;43.562;19.540;2023-07-08T07:49:23;972.90;819.20
70151;DHT22;57517;43.562;19.540;2023-07-08T07:51:49;973.50;793.60
70151;DHT22;57517;43.562;19.540;2023-07-08T07:54:15;973.00;819.20
70151;DHT22;57517;43.562;19.540;2023-07-08T07:56:41;973.40;793.60
70151;DHT22;57517;43.562;19.540;2023-07-08T07:59:07;998.80;793.60
70151;DHT22;57517;43.562;19.540;2023-07-08T08:01:32;973.10;819.20
70151;DHT22;57517;43.562;19.540;2023-07-08T08:03:58;973.40;819.20
70151;DHT22;57517;43.562;19.540;2023-07-08T08:06:24;998.60;793.60
70151;DHT22;57517;43.562;19.540;2023-07-08T08:08:51;998.80;793.60
70151;DHT22;57517;43.562;19.540;2023-07-08T08:11:16;998.70;793.60
70151;DHT22;57517;43.562;19.540;2023-07-08T08:13:42;973.50;793.60
70151;DHT22;57517;43.562;19.540;2023-07-08T08:16:08;922.50;870.40
70151;DHT22;57517;43.562;19.540;2023-07-08T08:18:34;896.20;921.60
70151;DHT22;57517;43.562;19.540;2023-07-08T08:21:00;845.50;1024.00
70151;DHT22;57517;43.562;19.540;2023-07-08T08:23:26;819.90;1049.60
70151;DHT22;57517;43.562;19.540;2023-07-08T08:25:52;819.70;1049.60
70151;DHT22;57517;43.562;19.540;2023-07-08T08:28:18;794.50;1100.80
70151;DHT22;57517;43.562;19.540;2023-07-08T08:30:48;793.90;1126.40
70151;DHT22;57517;43.562;19.540;2023-07-08T08:33:14;793.60;1152.00
70151;DHT22;57517;43.562;19.540;2023-07-08T08:35:39;793.60;1152.00
70151;DHT22;57517;43.562;19.540;2023-07-08T08:38:05;793.60;1152.00
70151;DHT22;57517;43.562;19.540;2023-07-08T08:40:31;768.60;1152.00
70151;DHT22;57517;43.562;19.540;2023-07-08T08:43:06;768.20;1203.20
70151;DHT22;57517;43.562;19.540;2023-07-08T08:45:41;768.10;1177.60
70151;DHT22;57517;43.562;19.540;2023-07-08T08:48:11;743.20;1203.20
70151;DHT22;57517;43.562;19.540;2023-07-08T08:53:17;743.00;1228.80
70151;DHT22;57517;43.562;19.540;2023-07-08T08:55:45;742.90;1228.80
70151;DHT22;57517;43.562;19.540;2023-07-08T09:01:06;742.70;1254.40
70151;DHT22;57517;43.562;19.540;2023-07-08T09:03:59;742.90;1228.80
70151;DHT22;57517;43.562;19.540;2023-07-08T09:06:28;742.90;1254.40
70151;DHT22;57517;43.562;19.540;2023-07-08T09:08:56;742.80;1254.40
70151;DHT22;57517;43.562;19.540;2023-07-08T09:19:33;742.40;1280.00
70151;DHT22;57517;43.562;19.540;2023-07-08T09:22:05;743.10;1254.40
70151;DHT22;57517;43.562;19.540;2023-07-08T09:27:10;743.00;1254.40
70151;DHT22;57517;43.562;19.540;2023-07-08T09:29:36;743.00;1254.40
70151;DHT22;57517;43.562;19.540;2023-07-08T09:32:22;743.00;1254.40
70151;DHT22;57517;43.562;19.540;2023-07-08T09:34:53;743.00;1254.40
70151;DHT22;57517;43.562;19.540;2023-07-08T09:37:25;743.20;1254.40
70151;DHT22;57517;43.562;19.540;2023-07-08T09:39:52;743.10;1228.80
70151;DHT22;57517;43.562;19.540;2023-07-08T09:42:18;743.10;1203.20
70151;DHT22;57517;43.562;19.540;2023-07-08T09:44:46;743.10;1203.20
70151;DHT22;57517;43.562;19.540;2023-07-08T09:47:24;743.10;1203.20
70151;DHT22;57517;43.562;19.540;2023-07-08T09:49:52;743.20;1203.20
70151;DHT22;57517;43.562;19.540;2023-07-08T09:52:19;743.00;1228.80
70151;DHT22;57517;43.562;19.540;2023-07-08T09:54:45;742.80;1254.40
70151;DHT22;57517;43.562;19.540;2023-07-08T09:57:31;743.10;1254.40
70151;DHT22;57517;43.562;19.540;2023-07-08T10:00:02;768.20;1203.20
70151;DHT22;57517;43.562;19.540;2023-07-08T10:05:52;768.60;1152.00
70151;DHT22;57517;43.562;19.540;2023-07-08T10:07:55;768.90;1152.00
70151;DHT22;57517;43.562;19.540;2023-07-08T10:10:34;768.50;1126.40
70151;DHT22;57517;43.562;19.540;2023-07-08T10:15:52;768.50;1100.80
70151;DHT22;57517;43.562;19.540;2023-07-08T10:18:27;768.70;1126.40
70151;DHT22;57517;43.562;19.540;2023-07-08T10:21:03;768.90;1075.20
70151;DHT22;57517;43.562;19.540;2023-07-08T10:23:47;768.60;1075.20
70151;DHT22;57517;43.562;19.540;2023-07-08T10:26:23;768.20;1100.80
70151;DHT22;57517;43.562;19.540;2023-07-08T10:36:58;768.40;1024.00
70151;DHT22;57517;43.562;19.540;2023-07-08T10:44:35;768.30;1024.00
70151;DHT22;57517;43.562;19.540;2023-07-08T10:50:22;742.80;1049.60
70151;DHT22;57517;43.562;19.540;2023-07-08T11:06:51;742.90;1049.60
70151;DHT22;57517;43.562;19.540;2023-07-08T11:09:32;743.10;1075.20
70151;DHT22;57517;43.562;19.540;2023-07-08T11:12:03;743.30;1049.60
70151;DHT22;57517;43.562;19.540;2023-07-08T11:15:01;768.20;1049.60
70151;DHT22;57517;43.562;19.540;2023-07-08T11:17:52;768.20;1024.00
70151;DHT22;57517;43.562;19.540;2023-07-08T11:25:47;768.20;1024.00
70151;DHT22;57517;43.562;19.540;2023-07-08T11:28:18;768.00;1024.00
70151;DHT22;57517;43.562;19.540;2023-07-08T11:30:47;743.30;998.40
70151;DHT22;57517;43.562;19.540;2023-07-08T11:33:13;743.30;1024.00
70151;DHT22;57517;43.562;19.540;2023-07-08T11:35:49;768.00;998.40
70151;DHT22;57517;43.562;19.540;2023-07-08T11:38:20;743.30;1024.00
70151;DHT22;57517;43.562;19.540;2023-07-08T11:41:01;743.10;1049.60
70151;DHT22;57517;43.562;19.540;2023-07-08T11:43:34;743.00;1024.00
70151;DHT22;57517;43.562;19.540;2023-07-08T11:46:04;743.10;1049.60
70151;DHT22;57517;43.562;19.540;2023-07-08T11:48:39;743.10;1049.60
70151;DHT22;57517;43.562;19.540;2023-07-08T11:51:06;742.80;1049.60
70151;DHT22;57517;43.562;19.540;2023-07-08T11:53:50;742.50;1049.60
70151;DHT22;57517;43.562;19.540;2023-07-08T12:01:22;742.80;1075.20
70151;DHT22;57517;43.562;19.540;2023-07-08T12:03:58;743.00;1100.80
70151;DHT22;57517;43.562;19.540;2023-07-08T12:08:54;743.30;1049.60
70151;DHT22;57517;43.562;19.540;2023-07-08T12:11:27;768.20;1024.00
70151;DHT22;57517;43.562;19.540;2023-07-08T12:14:00;768.50;998.40
70151;DHT22;57517;43.562;19.540;2023-07-08T12:16:27;768.80;998.40
70151;DHT22;57517;43.562;19.540;2023-07-08T12:18:54;768.90;972.80
70151;DHT22;57517;43.562;19.540;2023-07-08T12:21:23;768.90;921.60
70151;DHT22;57517;43.562;19.540;2023-07-08T12:23:49;768.90;947.20
70151;DHT22;57517;43.562;19.540;2023-07-08T12:26:15;793.80;947.20
70151;DHT22;57517;43.562;19.540;2023-07-08T12:28:42;793.60;921.60
70151;DHT22;57517;43.562;19.540;2023-07-08T12:31:22;793.60;972.80
70151;DHT22;57517;43.562;19.540;2023-07-08T12:33:49;793.60;947.20
70151;DHT22;57517;43.562;19.540;2023-07-08T12:36:19;768.90;921.60
70151;DHT22;57517;43.562;19.540;2023-07-08T12:38:46;768.70;947.20
70151;DHT22;57517;43.562;19.540;2023-07-08T12:41:19;768.70;947.20
70151;DHT22;57517;43.562;19.540;2023-07-08T12:43:47;768.70;947.20
70151;DHT22;57517;43.562;19.540;2023-07-08T12:46:15;768.60;921.60
70151;DHT22;57517;43.562;19.540;2023-07-08T12:48:41;768.70;921.60
70151;DHT22;57517;43.562;19.540;2023-07-08T12:51:15;768.80;947.20
70151;DHT22;57517;43.562;19.540;2023-07-08T12:53:42;768.60;998.40
70151;DHT22;57517;43.562;19.540;2023-07-08T12:56:09;768.50;998.40
70151;DHT22;57517;43.562;19.540;2023-07-08T12:58:48;768.50;998.40
70151;DHT22;57517;43.562;19.540;2023-07-08T13:01:23;768.40;998.40
70151;DHT22;57517;43.562;19.540;2023-07-08T13:03:52;768.20;972.80
70151;DHT22;57517;43.562;19.540;2023-07-08T13:06:22;768.20;998.40
70151;DHT22;57517;43.562;19.540;2023-07-08T13:08:49;768.30;1024.00
70151;DHT22;57517;43.562;19.540;2023-07-08T13:11:17;768.20;1024.00
70151;DHT22;57517;43.562;19.540;2023-07-08T13:13:56;768.20;1024.00
70151;DHT22;57517;43.562;19.540;2023-07-08T13:16:24;768.00;1049.60
70151;DHT22;57517;43.562;19.540;2023-07-08T13:18:51;743.20;1049.60
70151;DHT22;57517;43.562;19.540;2023-07-08T13:21:17;743.00;1049.60
70151;DHT22;57517;43.562;19.540;2023-07-08T13:23:44;742.80;1075.20
70151;DHT22;57517;43.562;19.540;2023-07-08T13:26:17;742.80;1049.60
70151;DHT22;57517;43.562;19.540;2023-07-08T13:28:44;743.00;1024.00
70151;DHT22;57517;43.562;19.540;2023-07-08T13:31:18;743.10;1049.60
70151;DHT22;57517;43.562;19.540;2023-07-08T13:33:53;743.10;1024.00
70151;DHT22;57517;43.562;19.540;2023-07-08T13:36:33;743.10;998.40
70151;DHT22;57517;43.562;19.540;2023-07-08T13:39:02;743.20;998.40
70151;DHT22;57517;43.562;19.540;2023-07-08T13:41:29;743.30;998.40
70151;DHT22;57517;43.562;19.540;2023-07-08T13:43:55;743.30;998.40
70151;DHT22;57517;43.562;19.540;2023-07-08T13:46:37;743.30;1024.00
70151;DHT22;57517;43.562;19.540;2023-07-08T13:49:20;743.20;998.40
70151;DHT22;57517;43.562;19.540;2023-07-08T13:51:47;743.20;1024.00
70151;DHT22;57517;43.562;19.540;2023-07-08T13:54:23;743.30;1024.00
70151;DHT22;57517;43.562;19.540;2023-07-08T13:56:50;743.30;998.40
70151;DHT22;57517;43.562;19.540;2023-07-08T13:59:21;768.20;998.40
70151;DHT22;57517;43.562;19.540;2023-07-08T14:01:47;768.40;1024.00
70151;DHT22;57517;43.562;19.540;2023-07-08T14:04:20;768.00;1024.00
70151;DHT22;57517;43.562;19.540;2023-07-08T14:06:46;743.30;1024.00
70151;DHT22;57517;43.562;19.540;2023-07-08T14:09:13;743.20;1049.60
70151;DHT22;57517;43.562;19.540;2023-07-08T14:11:40;743.10;1024.00
70151;DHT22;57517;43.562;19.540;2023-07-08T14:14:07;743.20;1024.00
70151;DHT22;57517;43.562;19.540;2023-07-08T14:16:36;743.10;998.40
70151;DHT22;57517;43.562;19.540;2023-07-08T14:19:05;743.10;1049.60
70151;DHT22;57517;43.562;19.540;2023-07-08T14:21:36;743.10;1049.60
70151;DHT22;57517;43.562;19.540;2023-07-08T14:24:04;743.10;1049.60
70151;DHT22;57517;43.562;19.540;2023-07-08T14:26:33;743.10;1049.60
70151;DHT22;57517;43.562;19.540;2023-07-08T14:28:59;743.00;1024.00
70151;DHT22;57517;43.562;19.540;2023-07-08T14:31:25;743.10;1049.60
70151;DHT22;57517;43.562;19.540;2023-07-08T14:34:02;743.10;1024.00
70151;DHT22;57517;43.562;19.540;2023-07-08T14:36:28;743.10;1049.60
70151;DHT22;57517;43.562;19.540;2023-07-08T14:38:54;743.10;1049.60
70151;DHT22;57517;43.562;19.540;2023-07-08T14:41:21;743.10;1049.60
70151;DHT22;57517;43.562;19.540;2023-07-08T14:43:47;743.10;1049.60
70151;DHT22;57517;43.562;19.540;2023-07-08T14:46:12;743.00;1049.60
70151;DHT22;57517;43.562;19.540;2023-07-08T14:48:38;742.90;1075.20
70151;DHT22;57517;43.562;19.540;2023-07-08T14:51:05;742.90;1049.60
70151;DHT22;57517;43.562;19.540;2023-07-08T14:53:32;743.00;1049.60
70151;DHT22;57517;43.562;19.540;2023-07-08T14:55:58;743.10;1024.00
70151;DHT22;57517;43.562;19.540;2023-07-08T14:58:28;743.10;1024.00
70151;DHT22;57517;43.562;19.540;2023-07-08T15:00:59;743.10;1049.60
70151;DHT22;57517;43.562;19.540;2023-07-08T15:03:26;743.20;1075.20
70151;DHT22;57517;43.562;19.540;2023-07-08T15:05:51;743.20;1049.60
70151;DHT22;57517;43.562;19.540;2023-07-08T15:08:17;743.10;1075.20
70151;DHT22;57517;43.562;19.540;2023-07-08T15:10:52;743.00;1049.60
70151;DHT22;57517;43.562;19.540;2023-07-08T15:13:21;743.10;1100.80
70151;DHT22;57517;43.562;19.540;2023-07-08T15:15:50;743.10;1075.20
70151;DHT22;57517;43.562;19.540;2023-07-08T15:18:18;743.10;1075.20
70151;DHT22;57517;43.562;19.540;2023-07-08T15:20:45;743.10;1075.20
70151;DHT22;57517;43.562;19.540;2023-07-08T15:23:11;743.00;1049.60
70151;DHT22;57517;43.562;19.540;2023-07-08T15:25:42;743.00;1075.20
70151;DHT22;57517;43.562;19.540;2023-07-08T15:28:32;743.10;1075.20
70151;DHT22;57517;43.562;19.540;2023-07-08T15:31:01;743.10;1100.80
70151;DHT22;57517;43.562;19.540;2023-07-08T15:33:27;743.10;1100.80
70151;DHT22;57517;43.562;19.540;2023-07-08T15:35:53;743.10;1100.80
70151;DHT22;57517;43.562;19.540;2023-07-08T15:38:19;743.00;1100.80
70151;DHT22;57517;43.562;19.540;2023-07-08T15:40:45;742.90;1100.80
70151;DHT22;57517;43.562;19.540;2023-07-08T15:43:14;743.00;1126.40
70151;DHT22;57517;43.562;19.540;2023-07-08T15:45:41;743.00;1100.80
70151;DHT22;57517;43.562;19.540;2023-07-08T15:48:17;742.90;1100.80
70151;DHT22;57517;43.562;19.540;2023-07-08T15:50:45;742.90;1100.80
70151;DHT22;57517;43.562;19.540;2023-07-08T15:53:11;742.90;1100.80
70151;DHT22;57517;43.562;19.540;2023-07-08T15:55:40;742.90;1100.80
70151;DHT22;57517;43.562;19.540;2023-07-08T15:58:31;742.90;1100.80
70151;DHT22;57517;43.562;19.540;2023-07-08T16:01:01;742.80;1100.80
70151;DHT22;57517;43.562;19.540;2023-07-08T16:03:32;742.80;1100.80